Time;durP1;ratioP1;P1;durP2;ratioP2;P2;SDS_P1;SDS_P2;PMS_P1;PMS_P2;Temp;Humidity;BMP_temperature;BMP_pressure;BME280_temperature;BME280_humidity;BME280_pressure;Samples;Min_cycle;Max_cycle;Signal;HPM_P1;HPM_P2
2022/02/24 06:09:52;;;;;;;4.78;1.83;;;8.10;89.40;;;;;;5065652;28;20391;-75
2022/02/24 06:12:17;;;;;;;4.72;2.05;;;8.20;89.10;;;;;;5060669;28;20047;-74
2022/02/24 06:14:43;;;;;;;5.03;2.05;;;8.50;88.50;;;;;;5059102;28;20027;-74
2022/02/24 06:17:09;;;;;;;5.95;2.20;;;8.70;87.70;;;;;;5072308;28;20025;-75
2022/02/24 06:19:34;;;;;;;9.10;1.80;;;9.00;87.00;;;;;;5069023;28;20028;-74
2022/02/24 06:22:00;;;;;;;4.85;1.70;;;9.10;85.90;;;;;;5067460;28;20037;-74
2022/02/24 06:24:26;;;;;;;4.50;1.90;;;9.20;85.10;;;;;;5050745;28;20040;-76
2022/02/24 06:26:51;;;;;;;4.35;1.83;;;9.40;84.80;;;;;;5050192;28;20037;-76
2022/02/24 06:29:17;;;;;;;4.68;1.98;;;9.50;84.10;;;;;;5063425;28;20021;-77
2022/02/24 06:31:43;;;;;;;4.28;2.15;;;9.50;83.60;;;;;;5067397;28;20043;-76
2022/02/24 06:34:08;;;;;;;5.10;1.60;;;9.40;83.60;;;;;;5068533;28;20035;-77
2022/02/24 06:36:34;;;;;;;8.82;2.03;;;9.40;83.50;;;;;;5060879;28;20029;-77
2022/02/24 06:39:00;;;;;;;5.45;1.60;;;9.40;83.10;;;;;;5070848;28;20029;-77
2022/02/24 06:41:26;;;;;;;5.63;2.00;;;9.40;83.10;;;;;;5069827;28;20472;-77
2022/02/24 06:43:52;;;;;;;3.97;1.55;;;9.40;83.20;;;;;;5069964;28;20112;-76
2022/02/24 06:46:18;;;;;;;5.55;2.05;;;9.30;83.30;;;;;;5061814;28;20047;-78
2022/02/24 06:48:44;;;;;;;5.70;2.33;;;9.30;83.30;;;;;;5049863;28;20017;-76
2022/02/24 06:51:10;;;;;;;6.22;2.20;;;9.50;83.10;;;;;;5050304;28;20033;-76
2022/02/24 06:53:36;;;;;;;4.80;1.77;;;9.50;82.90;;;;;;5049125;28;20036;-76
2022/02/24 06:56:03;;;;;;;4.97;2.00;;;9.60;82.90;;;;;;5049451;28;20036;-76
2022/02/24 06:58:28;;;;;;;5.90;1.70;;;9.70;82.70;;;;;;5050732;28;20100;-76
2022/02/24 07:00:54;;;;;;;7.15;2.15;;;9.70;82.70;;;;;;5051224;28;20067;-76
2022/02/24 07:03:20;;;;;;;4.60;1.60;;;9.70;82.60;;;;;;5050347;28;20428;-76
2022/02/24 07:05:45;;;;;;;9.40;1.55;;;9.70;82.50;;;;;;5050442;28;20029;-77
2022/02/24 07:08:11;;;;;;;4.55;2.08;;;9.80;82.40;;;;;;5049777;28;20045;-76
2022/02/24 07:10:37;;;;;;;5.85;1.48;;;9.80;82.40;;;;;;5052540;28;20025;-76
2022/02/24 07:13:02;;;;;;;8.82;2.85;;;9.90;82.10;;;;;;5070436;28;20035;-75
2022/02/24 07:15:28;;;;;;;6.18;1.80;;;9.80;82.60;;;;;;5073822;28;20056;-76
2022/02/24 07:17:54;;;;;;;2.67;1.70;;;9.70;82.40;;;;;;5090070;28;20032;-76
2022/02/24 07:20:20;;;;;;;3.35;1.60;;;9.70;82.30;;;;;;5081852;28;20112;-76
2022/02/24 07:22:46;;;;;;;5.10;1.70;;;9.70;82.50;;;;;;5061828;28;20396;-76
2022/02/24 07:25:12;;;;;;;3.47;1.40;;;9.60;82.60;;;;;;5036512;28;20034;-76
2022/02/24 07:27:39;;;;;;;4.47;1.65;;;9.50;82.50;;;;;;5038073;28;20025;-76
2022/02/24 07:30:06;;;;;;;5.60;1.80;;;9.60;82.80;;;;;;5036589;28;20216;-76
2022/02/24 07:32:32;;;;;;;12.00;2.13;;;9.60;82.70;;;;;;5037457;28;20028;-76
2022/02/24 07:34:58;;;;;;;4.93;1.70;;;9.70;82.60;;;;;;5036530;28;20040;-76
2022/02/24 07:37:24;;;;;;;2.92;1.95;;;9.70;82.30;;;;;;5036083;28;20076;-77
2022/02/24 07:39:50;;;;;;;6.60;1.88;;;10.00;81.60;;;;;;5037369;28;20025;-76
2022/02/24 07:42:19;;;;;;;4.65;1.60;;;10.00;81.50;;;;;;5036829;28;20120;-77
2022/02/24 07:44:45;;;;;;;3.38;1.75;;;10.00;81.50;;;;;;5036214;28;20029;-76
2022/02/24 07:47:11;;;;;;;6.78;2.38;;;10.00;81.60;;;;;;5036084;28;20086;-77
2022/02/24 07:49:37;;;;;;;7.07;2.72;;;10.10;81.60;;;;;;5037076;28;20021;-77
2022/02/24 07:52:03;;;;;;;5.57;2.58;;;10.20;81.40;;;;;;5037485;28;20083;-76
2022/02/24 07:54:29;;;;;;;4.45;2.13;;;10.30;81.30;;;;;;5035854;28;20036;-77
2022/02/24 07:56:54;;;;;;;6.38;1.90;;;10.60;80.50;;;;;;5036187;28;20025;-77
2022/02/24 07:59:20;;;;;;;4.88;2.50;;;11.20;78.70;;;;;;5037216;28;20564;-77
2022/02/24 08:01:46;;;;;;;5.80;1.63;;;11.80;76.80;;;;;;5036072;28;20427;-77
2022/02/24 08:04:12;;;;;;;8.40;2.38;;;12.80;73.70;;;;;;5036934;28;20055;-77
2022/02/24 08:06:38;;;;;;;5.78;1.70;;;13.30;71.70;;;;;;5036966;28;20085;-77
2022/02/24 08:09:07;;;;;;;7.53;1.80;;;13.20;71.00;;;;;;5035043;28;20053;-77
2022/02/24 08:11:34;;;;;;;6.70;1.90;;;12.90;71.00;;;;;;5044634;28;20021;-77
2022/02/24 08:14:01;;;;;;;9.32;1.98;;;12.80;72.10;;;;;;5055674;28;20033;-77
2022/02/24 08:16:27;;;;;;;9.52;2.45;;;12.50;73.40;;;;;;5065256;28;20074;-77
2022/02/24 08:18:55;;;;;;;16.40;3.60;;;12.90;72.00;;;;;;5036659;28;20031;-77
2022/02/24 08:21:22;;;;;;;19.13;3.83;;;12.90;71.80;;;;;;5035816;28;20031;-77
2022/02/24 08:23:48;;;;;;;24.33;5.97;;;13.20;71.50;;;;;;5055550;28;20029;-77
2022/02/24 08:26:14;;;;;;;8.40;2.40;;;12.90;71.70;;;;;;5056355;28;20017;-77
2022/02/24 08:28:40;;;;;;;68.47;10.88;;;13.30;71.20;;;;;;5047600;28;20094;-77
2022/02/24 08:31:06;;;;;;;12.95;4.53;;;13.30;70.70;;;;;;5035911;28;20537;-77
2022/02/24 08:33:31;;;;;;;10.15;2.45;;;13.30;71.00;;;;;;5047840;28;20494;-78
2022/02/24 08:35:57;;;;;;;4.55;2.00;;;13.30;70.40;;;;;;5054972;28;20134;-77
2022/02/24 08:38:23;;;;;;;6.68;1.48;;;13.50;69.80;;;;;;5053417;28;20403;-77
2022/02/24 08:40:48;;;;;;;7.95;1.40;;;13.60;69.70;;;;;;5056416;28;20484;-77
2022/02/24 08:43:14;;;;;;;6.57;1.60;;;13.60;69.20;;;;;;5056233;28;20096;-77
2022/02/24 08:45:41;;;;;;;4.72;1.80;;;13.20;70.90;;;;;;5036526;28;20033;-78
2022/02/24 08:48:07;;;;;;;4.68;1.92;;;13.60;70.30;;;;;;5040033;28;20052;-77
2022/02/24 08:50:33;;;;;;;6.13;2.03;;;13.40;70.30;;;;;;5056004;28;20040;-77
2022/02/24 08:52:59;;;;;;;5.75;1.90;;;13.00;71.00;;;;;;5055960;28;20028;-77
2022/02/24 08:55:26;;;;;;;3.83;1.30;;;12.70;72.30;;;;;;5054855;28;20088;-77
2022/02/24 08:57:52;;;;;;;8.50;1.70;;;12.40;73.20;;;;;;5056030;28;20032;-77
2022/02/24 09:00:18;;;;;;;6.13;1.67;;;12.20;73.90;;;;;;5054726;28;20033;-77
2022/02/24 09:02:44;;;;;;;5.30;1.13;;;12.20;74.60;;;;;;5055962;28;20021;-77
2022/02/24 09:05:10;;;;;;;9.25;1.58;;;12.00;74.80;;;;;;5044414;28;20032;-77
2022/02/24 09:07:35;;;;;;;3.72;2.13;;;12.10;75.10;;;;;;5034392;28;20131;-77
2022/02/24 09:10:02;;;;;;;7.03;1.45;;;12.20;74.80;;;;;;5034553;28;20461;-77
2022/02/24 09:12:28;;;;;;;5.15;1.33;;;12.20;74.50;;;;;;5039770;28;20030;-78
2022/02/24 09:14:53;;;;;;;9.02;1.98;;;12.30;74.40;;;;;;5035765;28;20701;-77
2022/02/24 09:17:19;;;;;;;5.05;1.50;;;12.70;73.60;;;;;;5074686;28;20073;-77
2022/02/24 09:19:45;;;;;;;8.07;2.35;;;13.00;72.70;;;;;;5063267;28;20033;-77
2022/02/24 09:22:12;;;;;;;7.32;2.38;;;13.20;72.40;;;;;;5054096;28;20048;-77
2022/02/24 09:24:42;;;;;;;5.45;1.88;;;13.30;72.20;;;;;;5054165;28;20017;-77
2022/02/24 09:27:08;;;;;;;6.07;1.23;;;13.50;71.80;;;;;;5054130;28;20021;-77
2022/02/24 09:29:34;;;;;;;8.45;1.60;;;13.30;71.10;;;;;;5053822;28;20132;-77
2022/02/24 09:32:00;;;;;;;4.32;1.25;;;13.30;71.20;;;;;;5055453;28;20053;-77
2022/02/24 09:34:26;;;;;;;7.90;2.25;;;13.70;71.40;;;;;;5054183;28;20412;-78
2022/02/24 09:36:52;;;;;;;7.38;1.63;;;13.80;70.50;;;;;;5046479;28;20032;-77
2022/02/24 09:39:17;;;;;;;5.90;1.73;;;13.70;70.80;;;;;;5033868;28;20116;-77
2022/02/24 09:41:46;;;;;;;6.18;2.03;;;13.80;71.00;;;;;;5040666;28;20017;-77
2022/02/24 09:44:12;;;;;;;7.30;1.45;;;13.80;70.40;;;;;;5054144;28;20025;-77
2022/02/24 09:46:40;;;;;;;7.82;1.50;;;13.70;70.40;;;;;;5052484;28;20017;-77
2022/02/24 09:49:07;;;;;;;7.72;1.40;;;13.50;71.20;;;;;;5034073;28;20026;-77
2022/02/24 09:51:33;;;;;;;7.40;1.45;;;13.30;71.40;;;;;;5033966;28;20729;-77
2022/02/24 09:54:01;;;;;;;8.00;2.05;;;13.00;72.50;;;;;;5035348;28;20087;-77
2022/02/24 09:56:29;;;;;;;5.57;1.73;;;12.80;73.50;;;;;;5034008;28;20079;-77
2022/02/24 09:58:57;;;;;;;3.38;1.13;;;12.70;73.70;;;;;;5034673;28;20025;-77
2022/02/24 10:01:23;;;;;;;7.05;1.40;;;12.50;74.30;;;;;;5045994;28;20028;-77
2022/02/24 10:04:00;;;;;;;5.30;1.65;;;12.50;74.10;;;;;;5055104;28;20032;-77
2022/02/24 10:06:41;;;;;;;3.65;1.73;;;12.50;74.60;;;;;;5053923;28;20025;-78
2022/02/24 10:09:08;;;;;;;5.40;1.60;;;12.50;75.00;;;;;;5046170;28;20065;-77
2022/02/24 10:11:35;;;;;;;4.95;1.08;;;12.50;74.90;;;;;;5043850;28;20403;-77
2022/02/24 10:14:12;;;;;;;9.50;2.25;;;12.60;74.40;;;;;;5037608;28;20040;-77
2022/02/24 10:17:04;;;;;;;3.83;1.20;;;12.70;74.20;;;;;;5061071;28;20027;-77
2022/02/24 10:19:45;;;;;;;8.98;2.10;;;12.90;73.60;;;;;;5073006;28;20025;-77
2022/02/24 10:22:19;;;;;;;4.43;1.25;;;12.90;73.60;;;;;;5048922;28;20022;-77
2022/02/24 10:24:56;;;;;;;8.25;1.88;;;13.10;72.90;;;;;;5034991;28;20033;-78
2022/02/24 10:27:34;;;;;;;5.75;1.83;;;13.20;73.00;;;;;;5040283;28;20032;-77
2022/02/24 10:30:13;;;;;;;4.40;1.02;;;13.20;72.50;;;;;;5049780;28;20114;-77
2022/02/24 10:32:44;;;;;;;5.77;1.60;;;13.20;71.70;;;;;;5050298;28;20492;-77
2022/02/24 10:35:21;;;;;;;3.28;1.02;;;13.00;71.90;;;;;;5049651;28;20100;-77
2022/02/24 10:38:06;;;;;;;4.85;1.90;;;12.80;74.30;;;;;;5034167;28;20021;-77
2022/02/24 10:40:45;;;;;;;7.32;1.40;;;12.70;75.10;;;;;;5050113;28;20017;-77
2022/02/24 10:43:25;;;;;;;5.80;1.20;;;12.70;74.60;;;;;;5037255;28;20052;-77
2022/02/24 10:46:04;;;;;;;6.43;1.65;;;12.60;74.90;;;;;;5034628;28;20030;-77
2022/02/24 10:48:32;;;;;;;4.18;1.48;;;12.50;75.20;;;;;;5044899;28;20092;-77
2022/02/24 10:51:00;;;;;;;5.78;1.70;;;12.20;78.20;;;;;;5054513;28;20025;-77
2022/02/24 10:53:29;;;;;;;2.83;1.30;;;11.40;84.70;;;;;;5054243;28;20021;-76
2022/02/24 10:56:08;;;;;;;3.20;1.00;;;11.00;82.40;;;;;;5045168;28;20061;-77
2022/02/24 10:58:43;;;;;;;5.28;0.93;;;10.90;82.50;;;;;;5037009;28;20487;-77
2022/02/24 11:01:12;;;;;;;3.28;0.80;;;10.90;80.30;;;;;;5037284;28;20056;-77
2022/02/24 11:03:40;;;;;;;3.78;0.88;;;11.10;79.50;;;;;;5036994;28;20099;-77
2022/02/24 11:06:08;;;;;;;2.35;0.68;;;11.30;79.50;;;;;;5048090;28;20029;-77
2022/02/24 11:08:35;;;;;;;1.27;1.00;;;11.40;78.60;;;;;;5056610;28;20077;-77
2022/02/24 11:11:01;;;;;;;2.40;0.85;;;11.40;78.70;;;;;;5045358;28;20040;-78
2022/02/24 11:13:30;;;;;;;1.95;1.10;;;11.50;78.40;;;;;;5036759;28;20026;-77
2022/02/24 11:15:57;;;;;;;4.13;1.00;;;11.90;77.90;;;;;;5052756;28;20020;-77
2022/02/24 11:18:24;;;;;;;2.42;1.17;;;12.00;76.90;;;;;;5062916;28;20514;-77
2022/02/24 11:20:50;;;;;;;3.28;0.90;;;12.00;73.40;;;;;;5038214;28;20024;-77
2022/02/24 11:23:16;;;;;;;5.05;0.98;;;12.20;74.70;;;;;;5037578;28;20434;-77
2022/02/24 11:25:54;;;;;;;3.85;0.80;;;12.10;73.10;;;;;;5036536;28;20060;-77
2022/02/24 11:28:22;;;;;;;1.65;0.88;;;12.20;74.50;;;;;;5049668;28;20031;-77
2022/02/24 11:30:56;;;;;;;5.20;1.27;;;12.40;73.20;;;;;;5057918;28;20025;-77
2022/02/24 11:33:22;;;;;;;2.50;1.15;;;12.40;71.90;;;;;;5055966;28;20061;-76
2022/02/24 11:36:10;;;;;;;4.68;1.13;;;12.50;71.40;;;;;;5050801;28;20121;-76
2022/02/24 11:38:36;;;;;;;3.88;0.80;;;12.50;71.20;;;;;;5037413;28;20511;-76
2022/02/24 11:41:06;;;;;;;5.68;0.90;;;12.60;70.30;;;;;;5037560;28;20104;-76
2022/02/24 11:43:33;;;;;;;;;;;12.70;70.90;;;;;;5049721;28;20025;-76
2022/02/24 11:46:03;;;;;;;7.43;1.25;;;12.50;67.80;;;;;;5057450;28;19909;-76
2022/02/24 11:48:35;;;;;;;6.05;1.00;;;12.50;68.10;;;;;;5054300;28;20032;-77
2022/02/24 11:51:09;;;;;;;6.35;1.10;;;12.70;68.60;;;;;;5037109;28;20022;-76
2022/02/24 11:53:37;;;;;;;4.05;1.10;;;12.80;68.80;;;;;;5051351;28;20037;-76
2022/02/24 11:56:13;;;;;;;4.20;1.00;;;12.80;67.20;;;;;;5047691;28;20026;-76
2022/02/24 11:58:55;;;;;;;5.32;1.25;;;12.90;66.10;;;;;;5035782;28;20058;-76
2022/02/24 12:01:30;;;;;;;4.38;1.77;;;12.90;64.00;;;;;;5035821;28;20022;-76
2022/02/24 12:03:57;;;;;;;5.28;0.95;;;13.00;65.90;;;;;;5037076;28;20021;-76
2022/02/24 12:06:41;;;;;;;5.75;1.27;;;13.00;65.00;;;;;;5036860;28;20034;-76
2022/02/24 12:09:14;;;;;;;6.78;1.00;;;12.90;65.20;;;;;;5036458;28;20053;-76
2022/02/24 12:11:46;;;;;;;6.25;1.13;;;12.50;63.20;;;;;;5046690;28;20078;-76
2022/02/24 12:14:24;;;;;;;1.50;0.75;;;11.70;66.10;;;;;;5056876;28;20040;-79
2022/02/24 12:17:04;;;;;;;4.65;2.10;;;11.20;65.40;;;;;;5070789;28;20020;-76
2022/02/24 12:19:42;;;;;;;4.47;1.05;;;10.80;64.20;;;;;;5037795;28;20641;-76
2022/02/24 12:22:15;;;;;;;6.28;1.10;;;11.20;65.30;;;;;;5037073;28;20076;-77
2022/02/24 12:24:47;;;;;;;5.03;0.93;;;11.60;64.40;;;;;;5036824;28;20068;-76
2022/02/24 12:27:40;;;;;;;3.03;1.23;;;11.70;61.70;;;;;;5039561;28;20017;-77
2022/02/24 12:30:09;;;;;;;3.55;1.30;;;11.80;60.80;;;;;;5055439;28;20081;-77
2022/02/24 12:32:41;;;;;;;5.35;1.20;;;11.80;62.50;;;;;;5055091;28;20061;-76
2022/02/24 12:35:08;;;;;;;3.58;0.93;;;12.10;62.90;;;;;;5054453;28;20570;-77
2022/02/24 12:37:34;;;;;;;5.00;0.90;;;12.20;61.10;;;;;;5056451;28;20021;-77
2022/02/24 12:40:01;;;;;;;5.93;1.02;;;12.20;60.30;;;;;;5055114;28;20033;-76
2022/02/24 12:42:30;;;;;;;5.75;1.33;;;12.00;57.90;;;;;;5035596;28;20030;-77
2022/02/24 12:44:57;;;;;;;4.10;1.42;;;12.00;60.60;;;;;;5051587;28;20044;-76
2022/02/24 12:47:22;;;;;;;5.25;1.80;;;12.00;60.60;;;;;;5051737;28;20025;-77
2022/02/24 12:49:54;;;;;;;3.72;1.25;;;12.10;60.00;;;;;;5050002;28;20056;-77
2022/02/24 12:52:29;;;;;;;9.93;1.73;;;12.00;61.00;;;;;;5034697;28;20124;-77
2022/02/24 12:54:57;;;;;;;8.15;1.58;;;12.30;60.50;;;;;;5034993;28;20040;-77
2022/02/24 12:57:27;;;;;;;8.20;2.97;;;12.40;59.00;;;;;;5034767;28;20287;-76
2022/02/24 12:59:54;;;;;;;9.88;2.95;;;12.40;59.10;;;;;;5034719;28;20033;-77
2022/02/24 13:02:20;;;;;;;6.50;1.90;;;12.50;58.70;;;;;;5036041;28;20021;-77
2022/02/24 13:04:46;;;;;;;11.70;1.80;;;12.50;57.70;;;;;;5034790;28;20029;-76
2022/02/24 13:09:42;;;;;;;9.55;2.17;;;12.50;58.20;;;;;;5034424;28;20032;-77
2022/02/24 13:10:01;;;;;;;5.45;1.52;;;12.50;58.50;;;;;;5050488;28;20375;-77
2022/02/24 13:12:27;;;;;;;3.60;1.35;;;12.50;58.20;;;;;;5055974;28;20029;-77
2022/02/24 13:14:52;;;;;;;5.00;1.40;;;12.50;58.40;;;;;;5055654;28;20025;-77
2022/02/24 13:17:25;;;;;;;4.47;1.42;;;12.10;58.00;;;;;;5054434;28;20043;-77
2022/02/24 13:19:52;;;;;;;3.30;1.50;;;12.20;59.00;;;;;;5055385;28;20025;-76
2022/02/24 13:22:21;;;;;;;7.05;1.85;;;12.30;58.10;;;;;;5054208;28;20032;-76
2022/02/24 13:24:47;;;;;;;13.17;3.20;;;12.40;58.40;;;;;;5054126;28;20021;-76
2022/02/24 13:27:21;;;;;;;11.52;2.17;;;12.50;58.20;;;;;;5055257;28;20024;-76
2022/02/24 13:29:52;;;;;;;9.32;1.80;;;12.50;56.50;;;;;;5054326;28;20029;-77
2022/02/24 13:32:27;;;;;;;7.32;2.00;;;12.40;56.70;;;;;;5035683;28;20021;-77
2022/02/24 13:34:58;;;;;;;7.15;2.25;;;12.30;56.20;;;;;;5035618;28;20030;-76
2022/02/24 13:37:33;;;;;;;;;;;12.10;55.10;;;;;;5037085;28;20491;-76
2022/02/24 13:40:15;;;;;;;6.25;1.30;;;11.80;55.40;;;;;;5055327;28;19909;-77
2022/02/24 13:43:00;;;;;;;3.17;1.20;;;12.00;54.20;;;;;;5037080;28;20029;-77
2022/02/24 13:45:25;;;;;;;3.08;0.93;;;12.20;51.50;;;;;;5035064;28;20101;-77
2022/02/24 13:47:59;;;;;;;2.60;1.27;;;11.90;47.20;;;;;;5035317;28;20061;-77
2022/02/24 13:50:45;;;;;;;3.65;1.23;;;12.10;50.50;;;;;;5035385;28;20108;-77
2022/02/24 13:53:30;;;;;;;4.15;1.00;;;12.20;50.70;;;;;;5034935;28;20022;-77
2022/02/24 13:55:58;;;;;;;3.70;0.90;;;12.20;50.00;;;;;;5035187;28;20053;-77
2022/02/24 13:58:29;;;;;;;3.50;1.02;;;12.00;50.70;;;;;;5034935;28;20125;-77
2022/02/24 14:00:57;;;;;;;3.60;1.40;;;11.90;50.50;;;;;;5035121;28;20431;-77
2022/02/24 14:03:37;;;;;;;4.60;1.50;;;12.10;51.40;;;;;;5034877;28;20049;-77
2022/02/24 14:06:05;;;;;;;2.90;1.02;;;12.10;51.70;;;;;;5034173;28;20022;-77
2022/02/24 14:08:31;;;;;;;2.75;1.10;;;12.00;50.80;;;;;;5034781;28;20042;-77
2022/02/24 14:11:05;;;;;;;2.38;0.90;;;12.10;51.40;;;;;;5038687;28;20035;-77
2022/02/24 14:13:30;;;;;;;3.28;1.48;;;12.00;52.10;;;;;;5039614;28;20045;-77
2022/02/24 14:15:56;;;;;;;4.72;1.02;;;12.00;52.70;;;;;;5049840;28;20071;-77
2022/02/24 14:18:22;;;;;;;5.18;1.42;;;12.10;53.10;;;;;;5064897;28;20021;-77
2022/02/24 14:20:50;;;;;;;4.43;1.35;;;12.20;52.90;;;;;;5052650;28;20029;-77
2022/02/24 14:23:16;;;;;;;6.50;1.17;;;12.30;51.50;;;;;;5053323;28;20454;-77
2022/02/24 14:25:41;;;;;;;9.07;1.35;;;12.40;51.70;;;;;;5053502;28;20048;-77
2022/02/24 14:28:07;;;;;;;5.45;1.27;;;12.40;50.70;;;;;;5043001;28;20089;-77
2022/02/24 14:30:33;;;;;;;2.05;0.80;;;12.60;51.00;;;;;;5035406;28;20110;-77
2022/02/24 14:32:59;;;;;;;3.60;1.45;;;12.40;50.90;;;;;;5045326;28;20037;-77
2022/02/24 14:35:25;;;;;;;3.60;1.20;;;12.20;50.70;;;;;;5058862;28;20029;-77
2022/02/24 14:37:50;;;;;;;6.05;1.70;;;11.40;51.10;;;;;;5057603;28;20072;-77
2022/02/24 14:40:16;;;;;;;5.93;1.25;;;11.10;51.90;;;;;;5057426;28;20021;-77
2022/02/24 14:42:42;;;;;;;3.83;1.02;;;10.70;52.60;;;;;;5058852;28;20388;-77
2022/02/24 14:45:08;;;;;;;2.85;1.27;;;10.80;54.00;;;;;;5053742;28;20025;-77
2022/02/24 14:47:35;;;;;;;4.47;1.10;;;10.80;53.40;;;;;;5038726;28;20028;-76
2022/02/24 14:50:01;;;;;;;5.03;1.60;;;11.10;53.20;;;;;;5036844;28;20025;-77
2022/02/24 14:52:27;;;;;;;3.50;0.93;;;11.20;53.60;;;;;;5052752;28;20065;-76
2022/02/24 14:54:53;;;;;;;5.00;1.80;;;11.10;54.10;;;;;;5057034;28;20025;-77
2022/02/24 14:57:21;;;;;;;7.50;1.30;;;11.00;53.90;;;;;;5058395;28;20499;-77
2022/02/24 14:59:47;;;;;;;5.03;1.17;;;11.20;53.90;;;;;;5040501;28;20491;-77
2022/02/24 15:02:13;;;;;;;4.35;1.27;;;11.20;53.90;;;;;;5038502;28;20045;-77
2022/02/24 15:04:39;;;;;;;2.95;1.05;;;11.20;53.50;;;;;;5036840;28;20036;-77
2022/02/24 15:07:06;;;;;;;5.10;1.15;;;11.30;54.00;;;;;;5037808;28;20025;-76
2022/02/24 15:09:33;;;;;;;6.20;1.88;;;11.30;50.40;;;;;;5036911;28;20416;-77
2022/02/24 15:11:59;;;;;;;11.18;1.45;;;11.20;51.70;;;;;;5049132;28;20078;-77
2022/02/24 15:14:24;;;;;;;3.47;1.40;;;11.30;51.80;;;;;;5056837;28;20120;-77
2022/02/24 15:16:54;;;;;;;11.02;1.88;;;11.40;50.20;;;;;;5051669;28;20061;-77
2022/02/24 15:19:20;;;;;;;4.53;1.45;;;11.50;50.80;;;;;;5036706;28;20025;-77
2022/02/24 15:21:46;;;;;;;7.45;1.42;;;11.60;50.00;;;;;;5038139;28;20803;-77
2022/02/24 15:24:12;;;;;;;6.45;1.52;;;11.40;49.70;;;;;;5036429;28;20052;-77
2022/02/24 15:26:37;;;;;;;10.68;1.85;;;11.40;50.80;;;;;;5037681;28;20025;-77
2022/02/24 15:29:03;;;;;;;5.18;1.75;;;11.10;49.10;;;;;;5036445;28;20030;-77
2022/02/24 15:31:29;;;;;;;6.85;2.33;;;11.20;50.00;;;;;;5037438;28;20805;-77
2022/02/24 15:33:54;;;;;;;5.57;1.75;;;11.10;49.20;;;;;;5043498;28;20037;-77
2022/02/24 15:36:21;;;;;;;7.30;1.45;;;11.10;50.30;;;;;;5045488;28;20061;-77
2022/02/24 15:38:47;;;;;;;6.38;1.85;;;11.10;49.30;;;;;;5037740;28;20052;-77
2022/02/24 15:41:13;;;;;;;10.20;2.30;;;11.10;50.30;;;;;;5037409;28;20025;-75
2022/02/24 15:43:39;;;;;;;9.65;2.42;;;11.20;50.60;;;;;;5042576;28;20021;-77
2022/02/24 15:46:05;;;;;;;8.30;1.60;;;11.10;49.70;;;;;;5047256;28;20440;-77
2022/02/24 15:48:31;;;;;;;8.00;3.83;;;11.10;50.90;;;;;;5056212;28;20546;-77
2022/02/24 15:50:56;;;;;;;6.25;1.92;;;11.20;50.70;;;;;;5054825;28;20435;-77
2022/02/24 15:53:22;;;;;;;10.05;2.05;;;11.20;50.80;;;;;;5054369;28;20017;-77
2022/02/24 15:55:48;;;;;;;6.22;2.30;;;11.20;51.10;;;;;;5053982;28;20128;-77
2022/02/24 15:58:13;;;;;;;10.98;2.47;;;11.20;50.00;;;;;;5055957;28;20088;-77
2022/02/24 16:00:39;;;;;;;6.78;1.63;;;11.10;51.20;;;;;;5054771;28;20479;-77
2022/02/24 16:03:05;;;;;;;7.32;2.17;;;11.20;51.80;;;;;;5054937;28;20479;-77
2022/02/24 16:05:32;;;;;;;15.00;2.22;;;11.10;51.40;;;;;;5054035;28;20024;-78
2022/02/24 16:07:58;;;;;;;4.22;1.80;;;11.10;51.80;;;;;;5041732;28;20511;-77
2022/02/24 16:10:24;;;;;;;4.22;1.52;;;11.10;50.90;;;;;;5050741;28;20032;-77
2022/02/24 16:12:50;;;;;;;7.25;1.63;;;11.10;50.90;;;;;;5054882;28;20096;-78
2022/02/24 16:15:15;;;;;;;6.38;2.42;;;11.10;50.80;;;;;;5048112;28;20070;-78
2022/02/24 16:17:41;;;;;;;11.07;2.42;;;11.10;51.10;;;;;;5052093;28;20033;-79
2022/02/24 16:20:08;;;;;;;11.15;1.75;;;11.10;51.20;;;;;;5045520;28;20496;-78
2022/02/24 16:22:34;;;;;;;8.35;1.85;;;11.10;50.80;;;;;;5039970;28;20025;-78
2022/02/24 16:25:01;;;;;;;4.55;1.42;;;10.80;50.90;;;;;;5051551;28;20029;-78
2022/02/24 16:27:28;;;;;;;7.35;1.80;;;10.80;50.40;;;;;;5049105;28;20023;-78
2022/02/24 16:29:55;;;;;;;9.63;1.90;;;10.80;51.10;;;;;;5041968;28;20115;-75
2022/02/24 16:32:20;;;;;;;7.30;2.47;;;10.70;51.10;;;;;;5049123;28;20025;-77
2022/02/24 16:34:46;;;;;;;9.27;2.35;;;10.70;51.00;;;;;;5051250;28;20055;-78
2022/02/24 16:37:12;;;;;;;6.85;2.30;;;10.80;50.70;;;;;;5049721;28;20024;-78
2022/02/24 16:39:38;;;;;;;8.15;2.08;;;10.70;50.10;;;;;;5036136;28;20083;-77
2022/02/24 16:42:06;;;;;;;4.88;2.20;;;10.70;50.00;;;;;;5034627;28;20029;-77
2022/02/24 16:44:35;;;;;;;5.95;2.03;;;10.70;50.20;;;;;;5036310;28;20026;-77
2022/02/24 16:47:04;;;;;;;8.75;3.38;;;10.60;50.10;;;;;;5036116;28;20028;-77
2022/02/24 16:49:31;;;;;;;12.15;3.30;;;10.60;50.10;;;;;;5034839;28;20032;-78
2022/02/24 16:51:58;;;;;;;11.10;2.85;;;10.50;49.80;;;;;;5037306;28;20025;-77
2022/02/24 16:54:23;;;;;;;7.97;2.25;;;10.40;50.20;;;;;;5055421;28;20029;-77
2022/02/24 16:56:49;;;;;;;9.27;2.90;;;10.30;49.90;;;;;;5054245;28;20468;-77
2022/02/24 16:59:16;;;;;;;11.25;2.17;;;10.30;50.40;;;;;;5054303;28;20037;-77
2022/02/24 17:01:43;;;;;;;13.63;2.53;;;10.30;50.50;;;;;;5043726;28;20104;-77
2022/02/24 17:04:09;;;;;;;8.55;2.42;;;10.30;50.60;;;;;;5051043;28;20040;-77
2022/02/24 17:06:35;;;;;;;9.60;2.40;;;10.20;50.50;;;;;;5043918;28;20026;-77
2022/02/24 17:09:00;;;;;;;7.57;2.30;;;10.00;50.60;;;;;;5040560;28;20067;-77
2022/02/24 17:11:26;;;;;;;6.57;3.03;;;9.90;50.80;;;;;;5050404;28;20032;-77
2022/02/24 17:13:53;;;;;;;9.25;1.80;;;10.00;51.40;;;;;;5056609;28;20086;-77
2022/02/24 17:16:19;;;;;;;7.40;1.95;;;9.90;49.80;;;;;;5051268;28;20596;-77
2022/02/24 17:18:44;;;;;;;5.05;1.95;;;9.80;49.40;;;;;;5059630;28;20520;-77
2022/02/24 17:21:10;;;;;;;9.32;2.70;;;9.70;49.70;;;;;;5054774;28;20051;-77
2022/02/24 17:23:37;;;;;;;11.77;2.67;;;9.70;50.30;;;;;;5060358;28;20068;-78
2022/02/24 17:26:03;;;;;;;9.20;2.30;;;9.70;50.00;;;;;;5050753;28;20494;-76
2022/02/24 17:28:29;;;;;;;7.35;1.60;;;9.50;50.00;;;;;;5062854;28;20028;-76
2022/02/24 17:30:55;;;;;;;9.05;2.38;;;9.40;50.30;;;;;;5053668;28;20036;-76
2022/02/24 17:33:23;;;;;;;7.22;2.05;;;9.30;51.00;;;;;;5050464;28;20045;-76
2022/02/24 17:35:48;;;;;;;3.92;1.92;;;9.40;51.30;;;;;;5044424;28;20052;-76
2022/02/24 17:38:14;;;;;;;7.47;2.00;;;9.30;51.10;;;;;;5065403;28;20137;-76
2022/02/24 17:40:40;;;;;;;4.78;1.90;;;9.30;51.50;;;;;;5064466;28;20013;-76
2022/02/24 17:43:06;;;;;;;10.48;4.05;;;9.10;50.60;;;;;;5053130;28;20040;-73
2022/02/24 17:45:33;;;;;;;13.05;3.55;;;9.10;51.50;;;;;;5063560;28;20025;-76
2022/02/24 17:47:59;;;;;;;7.28;2.28;;;9.20;51.70;;;;;;5073424;28;20033;-75
2022/02/24 17:50:25;;;;;;;11.13;2.50;;;9.10;51.20;;;;;;5053556;28;20056;-75
2022/02/24 17:52:50;;;;;;;7.18;2.08;;;9.00;51.40;;;;;;5051284;28;20033;-75
2022/02/24 17:55:18;;;;;;;8.70;2.88;;;9.00;51.50;;;;;;5050030;28;20403;-75
2022/02/24 17:57:44;;;;;;;6.93;2.50;;;8.90;52.10;;;;;;5050497;28;20530;-75
2022/02/24 18:00:10;;;;;;;7.85;3.33;;;9.00;51.60;;;;;;5049403;28;20035;-75
2022/02/24 18:02:36;;;;;;;6.93;2.80;;;9.00;51.90;;;;;;5050103;28;20031;-76
2022/02/24 18:05:02;;;;;;;8.60;2.70;;;8.90;51.90;;;;;;5050796;28;20104;-75
2022/02/24 18:07:28;;;;;;;10.45;3.00;;;8.70;51.60;;;;;;5052074;28;20048;-77
2022/02/24 18:09:55;;;;;;;8.57;2.78;;;8.70;52.30;;;;;;5052058;28;20051;-76
2022/02/24 18:12:21;;;;;;;4.97;2.83;;;8.70;51.70;;;;;;5051565;28;20062;-76
2022/02/24 18:14:47;;;;;;;11.80;2.97;;;8.70;52.30;;;;;;5051774;28;20025;-76
2022/02/24 18:17:12;;;;;;;11.07;2.15;;;8.70;52.50;;;;;;5053444;28;20521;-74
2022/02/24 18:19:38;;;;;;;9.82;2.65;;;8.70;52.60;;;;;;5053621;28;20021;-79
2022/02/24 18:22:04;;;;;;;6.72;2.00;;;8.70;52.80;;;;;;5054082;28;20047;-79
2022/02/24 18:24:30;;;;;;;5.97;2.33;;;8.60;53.10;;;;;;5053973;28;20104;-74
2022/02/24 18:26:58;;;;;;;9.15;2.13;;;8.60;53.70;;;;;;5051695;28;20515;-77
2022/02/24 18:29:24;;;;;;;10.05;2.95;;;8.50;53.90;;;;;;5048414;28;20013;-76
2022/02/24 18:31:50;;;;;;;7.95;3.67;;;8.40;53.90;;;;;;5055108;28;20055;-76
2022/02/24 18:34:15;;;;;;;13.32;4.45;;;8.30;53.40;;;;;;5053681;28;20120;-78
2022/02/24 18:36:41;;;;;;;7.25;2.88;;;8.30;53.80;;;;;;5052237;28;20655;-78
2022/02/24 18:39:10;;;;;;;11.10;3.35;;;8.30;54.20;;;;;;5051039;28;20075;-77
2022/02/24 18:41:36;;;;;;;5.68;2.53;;;8.30;54.20;;;;;;5050904;28;20028;-78
2022/02/24 18:44:02;;;;;;;10.27;2.25;;;8.20;53.60;;;;;;5051104;28;20018;-78
2022/02/24 18:46:28;;;;;;;7.00;2.38;;;8.20;53.80;;;;;;5052186;28;20106;-74
2022/02/24 18:48:53;;;;;;;5.07;2.53;;;8.10;54.10;;;;;;5052955;28;20067;-77
2022/02/24 18:51:19;;;;;;;11.98;2.35;;;8.20;54.70;;;;;;5050894;28;20025;-74
2022/02/24 18:53:45;;;;;;;5.85;2.13;;;8.20;54.80;;;;;;5054137;28;20120;-77
2022/02/24 18:56:11;;;;;;;7.78;2.40;;;8.20;55.20;;;;;;5053688;28;20029;-76
2022/02/24 18:58:37;;;;;;;5.60;2.38;;;8.10;55.10;;;;;;5054306;28;20384;-79
2022/02/24 19:01:03;;;;;;;8.82;2.40;;;8.00;55.20;;;;;;5034045;28;20034;-79